Time;durP1;ratioP1;P1;durP2;ratioP2;P2;SDS_P1;SDS_P2;PMS_P1;PMS_P2;Temp;Humidity;BMP_temperature;BMP_pressure;BME280_temperature;BME280_humidity;BME280_pressure;Samples;Min_cycle;Max_cycle;Signal;HPM_P1;HPM_P2
2021/04/10 00:00:31;;;;;;;5.40;3.73;;;4.60;99.90;;;;;;5013214;28;20209;-71
2021/04/10 00:02:57;;;;;;;6.63;3.50;;;4.70;99.90;;;;;;5013316;28;20193;-71
2021/04/10 00:05:24;;;;;;;4.70;3.80;;;4.70;99.90;;;;;;5013149;28;20197;-71
2021/04/10 00:07:50;;;;;;;6.07;3.90;;;4.70;99.90;;;;;;5015350;28;20186;-72
2021/04/10 00:10:17;;;;;;;6.00;3.83;;;4.70;99.90;;;;;;5015905;28;20461;-71
2021/04/10 00:12:43;;;;;;;3.70;3.10;;;4.60;99.90;;;;;;5015849;28;20483;-71
2021/04/10 00:15:12;;;;;;;6.40;4.20;;;4.50;99.90;;;;;;5012437;28;20495;-72
2021/04/10 00:17:39;;;;;;;6.83;3.47;;;4.50;99.90;;;;;;5013804;28;20423;-71
2021/04/10 00:20:13;;;;;;;3.90;3.53;;;4.40;99.90;;;;;;5013790;28;20789;-72
2021/04/10 00:22:39;;;;;;;6.33;3.50;;;4.50;99.90;;;;;;5013703;28;20189;-72
2021/04/10 00:25:06;;;;;;;5.10;4.07;;;4.50;99.90;;;;;;5010426;28;20444;-71
2021/04/10 00:27:32;;;;;;;6.53;3.57;;;4.30;99.90;;;;;;5013626;28;20425;-72
2021/04/10 00:29:58;;;;;;;8.03;3.83;;;4.30;99.90;;;;;;5013666;28;20428;-72
2021/04/10 00:32:24;;;;;;;6.27;3.77;;;4.30;99.90;;;;;;5012196;28;20182;-71
2021/04/10 00:34:49;;;;;;;6.27;3.53;;;4.40;99.90;;;;;;5012717;28;20178;-72
2021/04/10 00:37:15;;;;;;;6.17;4.07;;;4.50;99.90;;;;;;5012837;28;20421;-71
2021/04/10 00:39:41;;;;;;;7.50;3.13;;;4.50;99.90;;;;;;4995556;28;20170;-71
2021/04/10 00:42:08;;;;;;;6.87;3.60;;;4.50;99.90;;;;;;5012386;28;20279;-71
2021/04/10 00:44:34;;;;;;;5.17;3.70;;;4.60;99.90;;;;;;5012381;28;20430;-72
2021/04/10 00:47:00;;;;;;;6.23;3.50;;;4.60;99.90;;;;;;4996079;28;20444;-71
2021/04/10 00:49:26;;;;;;;11.23;3.33;;;4.50;99.90;;;;;;5012830;28;20210;-71
2021/04/10 00:51:51;;;;;;;4.93;3.40;;;4.50;99.90;;;;;;5012701;28;20194;-71
2021/04/10 00:54:18;;;;;;;8.10;4.10;;;4.50;99.90;;;;;;5011615;28;20534;-71
2021/04/10 00:56:44;;;;;;;4.20;3.07;;;4.50;99.90;;;;;;5010255;28;20182;-71
2021/04/10 00:59:10;;;;;;;13.40;4.03;;;4.60;99.90;;;;;;5013896;28;20430;-71
2021/04/10 01:01:36;;;;;;;4.37;3.97;;;4.60;99.90;;;;;;5012105;28;20429;-71
2021/04/10 01:04:01;;;;;;;4.43;2.87;;;4.70;99.90;;;;;;5012386;28;20432;-71
2021/04/10 01:06:27;;;;;;;5.07;3.47;;;4.70;99.90;;;;;;5010554;28;20437;-71
2021/04/10 01:08:53;;;;;;;5.90;3.13;;;4.50;99.90;;;;;;5012387;28;20232;-71
2021/04/10 01:11:44;;;;;;;3.47;3.17;;;4.50;99.90;;;;;;5012675;28;20536;-71
2021/04/10 01:14:37;;;;;;;3.13;2.57;;;4.50;99.90;;;;;;5011097;28;20492;-72
2021/04/10 01:17:10;;;;;;;3.03;2.83;;;4.50;99.90;;;;;;5009571;28;20575;-71
2021/04/10 01:20:18;;;;;;;12.83;5.50;;;4.60;99.90;;;;;;5012119;28;20460;-71
2021/04/10 01:23:14;;;;;;;4.90;3.03;;;4.70;99.90;;;;;;5002114;28;20964;-71
2021/04/10 01:25:56;;;;;;;2.67;2.47;;;4.70;99.90;;;;;;4994520;28;20437;-71
2021/04/10 01:28:52;;;;;;;5.80;3.10;;;4.70;99.90;;;;;;5012046;28;20491;-71
2021/04/10 01:31:23;;;;;;;4.37;2.90;;;4.70;99.90;;;;;;4994289;28;20523;-72
2021/04/10 01:33:58;;;;;;;10.07;3.30;;;4.60;99.90;;;;;;5012504;28;20504;-72
2021/04/10 01:36:28;;;;;;;6.77;3.67;;;4.50;99.90;;;;;;5009861;28;20445;-72
2021/04/10 01:38:55;;;;;;;8.83;3.60;;;4.40;99.90;;;;;;5010898;28;20437;-71
2021/04/10 01:41:22;;;;;;;4.27;3.57;;;4.40;99.90;;;;;;5013290;28;20480;-72
2021/04/10 01:43:50;;;;;;;5.13;2.70;;;4.40;99.90;;;;;;4994223;28;20439;-71
2021/04/10 01:46:17;;;;;;;8.30;3.03;;;4.40;99.90;;;;;;5011000;28;20520;-71
2021/04/10 01:48:44;;;;;;;7.07;3.23;;;4.50;99.90;;;;;;5011852;28;20495;-71
2021/04/10 01:51:11;;;;;;;8.63;3.03;;;4.50;99.90;;;;;;5012520;28;20476;-72
2021/04/10 01:53:39;;;;;;;4.63;3.33;;;4.50;99.90;;;;;;5010032;28;20467;-72
2021/04/10 01:56:05;;;;;;;3.37;2.87;;;4.60;99.90;;;;;;5010946;28;20433;-71
2021/04/10 01:58:32;;;;;;;7.43;2.70;;;4.60;99.90;;;;;;5012938;28;20429;-72
2021/04/10 02:00:59;;;;;;;7.43;3.37;;;4.60;99.90;;;;;;5011738;28;20504;-72
2021/04/10 02:03:26;;;;;;;6.20;2.90;;;4.70;99.90;;;;;;5013172;28;20420;-71
2021/04/10 02:05:54;;;;;;;6.90;3.47;;;4.70;99.90;;;;;;5009338;28;20472;-71
2021/04/10 02:08:20;;;;;;;8.60;3.67;;;4.80;99.90;;;;;;5011272;28;20480;-72
2021/04/10 02:10:46;;;;;;;6.03;3.60;;;4.80;99.90;;;;;;5010695;28;20429;-71
2021/04/10 02:13:13;;;;;;;6.10;3.50;;;4.80;99.90;;;;;;5011522;28;20464;-71
2021/04/10 02:15:39;;;;;;;9.87;4.00;;;4.80;99.90;;;;;;5010249;28;20457;-72
2021/04/10 02:18:05;;;;;;;5.83;3.50;;;4.80;99.90;;;;;;5011885;28;20418;-71
2021/04/10 02:20:31;;;;;;;4.87;3.77;;;4.70;99.90;;;;;;5010894;28;20440;-71
2021/04/10 02:22:57;;;;;;;9.70;3.83;;;4.70;99.90;;;;;;4992028;28;20740;-71
2021/04/10 02:25:26;;;;;;;5.60;3.63;;;4.60;99.90;;;;;;5013392;28;20244;-72
2021/04/10 02:27:55;;;;;;;8.27;4.23;;;4.60;99.90;;;;;;5016328;28;20894;-72
2021/04/10 02:30:22;;;;;;;9.73;3.67;;;4.60;99.90;;;;;;5014565;28;20490;-71
2021/04/10 02:32:53;;;;;;;6.00;3.40;;;4.60;99.90;;;;;;5016998;28;20548;-71
2021/04/10 02:35:40;;;;;;;3.60;2.50;;;4.60;99.90;;;;;;5015144;28;20441;-71
2021/04/10 02:38:07;;;;;;;9.90;3.50;;;4.60;99.90;;;;;;5015345;28;20519;-71
2021/04/10 02:40:38;;;;;;;19.00;4.50;;;4.60;99.90;;;;;;5016073;28;20759;-72
2021/04/10 02:43:07;;;;;;;11.47;2.83;;;4.60;99.90;;;;;;5006179;28;20436;-71
2021/04/10 02:45:34;;;;;;;7.53;4.17;;;4.70;99.90;;;;;;5014439;28;20440;-71
2021/04/10 02:48:04;;;;;;;8.23;3.60;;;4.70;99.90;;;;;;5015565;28;20500;-71
2021/04/10 02:50:30;;;;;;;11.97;2.90;;;4.70;99.90;;;;;;5014923;28;20425;-72
2021/04/10 02:53:01;;;;;;;4.53;2.80;;;4.60;99.90;;;;;;5016571;28;20530;-71
2021/04/10 02:55:32;;;;;;;7.00;3.50;;;4.70;99.90;;;;;;5012854;28;20429;-72
2021/04/10 02:58:05;;;;;;;4.20;3.40;;;4.70;99.90;;;;;;5016112;28;20418;-71
2021/04/10 03:00:32;;;;;;;5.00;3.30;;;4.70;99.90;;;;;;5016241;28;20456;-72
2021/04/10 03:03:01;;;;;;;10.03;4.40;;;4.70;99.90;;;;;;5016222;28;20436;-71
2021/04/10 03:05:27;;;;;;;10.43;3.77;;;4.70;99.90;;;;;;4995759;28;20429;-72
2021/04/10 03:07:53;;;;;;;8.43;3.10;;;4.70;99.90;;;;;;5013560;28;20840;-71
2021/04/10 03:10:20;;;;;;;4.90;3.53;;;4.80;99.90;;;;;;5015239;28;20183;-71
2021/04/10 03:12:47;;;;;;;5.80;3.20;;;4.80;99.90;;;;;;4988332;28;20467;-71
2021/04/10 03:15:14;;;;;;;10.53;3.20;;;4.70;99.90;;;;;;5012593;28;20766;-71
2021/04/10 03:17:41;;;;;;;5.57;2.90;;;4.70;99.90;;;;;;5014095;28;20425;-71
2021/04/10 03:20:14;;;;;;;9.37;2.60;;;4.70;99.90;;;;;;5015021;28;20511;-71
2021/04/10 03:22:48;;;;;;;6.83;3.00;;;4.70;99.90;;;;;;5015097;28;20420;-71
2021/04/10 03:25:16;;;;;;;10.60;2.93;;;4.70;99.90;;;;;;5012476;28;20509;-72
2021/04/10 03:27:42;;;;;;;3.53;3.23;;;4.80;99.90;;;;;;5013824;28;20899;-71
2021/04/10 03:30:11;;;;;;;6.67;3.60;;;4.80;99.90;;;;;;5014970;28;20906;-71
2021/04/10 03:32:38;;;;;;;9.87;3.27;;;4.70;99.90;;;;;;5014208;28;20425;-72
2021/04/10 03:35:05;;;;;;;6.10;3.30;;;4.60;99.90;;;;;;5010144;28;20463;-71
2021/04/10 03:37:31;;;;;;;9.00;3.30;;;4.60;99.90;;;;;;5013224;28;20421;-72
2021/04/10 03:39:58;;;;;;;7.17;3.13;;;4.60;99.90;;;;;;5014798;28;20433;-71
2021/04/10 03:42:44;;;;;;;4.43;2.57;;;4.60;99.90;;;;;;5014033;28;20422;-71
2021/04/10 03:45:19;;;;;;;5.57;3.60;;;4.70;99.90;;;;;;5012787;28;20478;-71
2021/04/10 03:47:45;;;;;;;5.80;2.50;;;4.70;99.90;;;;;;5014399;28;20746;-71
2021/04/10 03:50:11;;;;;;;4.80;2.30;;;4.70;99.90;;;;;;5012832;28;20432;-71
2021/04/10 03:52:37;;;;;;;3.80;2.67;;;4.80;99.90;;;;;;5015047;28;20167;-71
2021/04/10 03:55:04;;;;;;;3.23;2.80;;;4.80;99.90;;;;;;5012846;28;20755;-71
2021/04/10 03:57:32;;;;;;;5.83;3.47;;;4.80;99.90;;;;;;5014455;28;20182;-72
2021/04/10 03:59:59;;;;;;;8.20;2.83;;;4.80;99.90;;;;;;5012925;28;20425;-71
2021/04/10 04:02:24;;;;;;;4.73;2.60;;;4.80;99.90;;;;;;5013061;28;20432;-72
2021/04/10 04:04:50;;;;;;;4.20;2.50;;;4.80;99.90;;;;;;5012993;28;20508;-71
2021/04/10 04:07:15;;;;;;;9.80;3.20;;;4.80;99.90;;;;;;5013557;28;20261;-71
2021/04/10 04:09:41;;;;;;;10.20;2.90;;;4.70;99.90;;;;;;5014414;28;20178;-71
2021/04/10 04:12:08;;;;;;;11.70;3.07;;;4.60;99.90;;;;;;5014373;28;20179;-72
2021/04/10 04:14:34;;;;;;;14.03;3.37;;;4.50;99.90;;;;;;5014243;28;20644;-72
2021/04/10 04:17:00;;;;;;;3.83;2.60;;;4.60;99.90;;;;;;5012463;28;20428;-71
2021/04/10 04:19:25;;;;;;;8.00;3.07;;;4.60;99.90;;;;;;5013474;28;20616;-71
2021/04/10 04:21:51;;;;;;;4.30;2.60;;;4.60;99.90;;;;;;5012649;28;20429;-72
2021/04/10 04:24:17;;;;;;;7.93;2.80;;;4.60;99.90;;;;;;5012237;28;20194;-71
2021/04/10 04:26:43;;;;;;;7.53;3.13;;;4.70;99.90;;;;;;4995890;28;20499;-72
2021/04/10 04:29:09;;;;;;;10.13;3.30;;;4.70;99.90;;;;;;5011999;28;20191;-71
2021/04/10 04:31:34;;;;;;;7.47;2.70;;;4.70;99.90;;;;;;5010413;28;20174;-71
2021/04/10 04:34:00;;;;;;;3.10;2.73;;;4.70;99.90;;;;;;5013195;28;20647;-71
2021/04/10 04:36:26;;;;;;;8.93;3.20;;;4.60;99.90;;;;;;5011893;28;20182;-72
2021/04/10 04:38:51;;;;;;;6.00;2.70;;;4.70;99.90;;;;;;5014016;28;20175;-71
2021/04/10 04:41:17;;;;;;;7.50;2.73;;;4.70;99.90;;;;;;5014039;28;20189;-72
2021/04/10 04:43:43;;;;;;;4.40;2.43;;;4.70;99.90;;;;;;5012693;28;20178;-72
2021/04/10 04:46:09;;;;;;;4.40;2.77;;;4.70;99.90;;;;;;4995299;28;20282;-72
2021/04/10 04:48:34;;;;;;;5.00;2.50;;;4.70;99.90;;;;;;5013179;28;20938;-72
2021/04/10 04:51:00;;;;;;;8.03;2.37;;;4.70;99.90;;;;;;5012097;28;20560;-72
2021/04/10 04:53:25;;;;;;;5.70;2.60;;;4.70;99.90;;;;;;5012764;28;20256;-72
2021/04/10 04:55:51;;;;;;;5.47;2.90;;;4.80;99.90;;;;;;5011412;28;20183;-71
2021/04/10 04:58:17;;;;;;;6.07;2.70;;;4.70;99.90;;;;;;5013283;28;20174;-72
2021/04/10 05:00:42;;;;;;;6.03;2.73;;;4.70;99.90;;;;;;5010231;28;20226;-72
2021/04/10 05:03:08;;;;;;;7.60;4.37;;;4.70;99.90;;;;;;5011562;28;20197;-71
2021/04/10 05:05:33;;;;;;;6.17;3.13;;;4.70;99.90;;;;;;4993241;28;20199;-72
2021/04/10 05:07:59;;;;;;;4.43;3.33;;;4.70;99.90;;;;;;5011979;28;20170;-71
2021/04/10 05:10:25;;;;;;;11.73;3.63;;;4.70;99.90;;;;;;5012710;28;20269;-71
2021/04/10 05:12:53;;;;;;;3.90;2.63;;;4.70;99.90;;;;;;5011358;28;20290;-72
2021/04/10 05:15:19;;;;;;;4.70;2.63;;;4.70;99.90;;;;;;5009420;28;20183;-71
2021/04/10 05:17:44;;;;;;;10.03;3.07;;;4.70;99.90;;;;;;5012131;28;20430;-72
2021/04/10 05:20:11;;;;;;;10.10;3.33;;;4.80;99.90;;;;;;5011454;28;20193;-71
2021/04/10 05:22:36;;;;;;;8.63;3.70;;;4.80;99.90;;;;;;5012461;28;20182;-71
2021/04/10 05:25:03;;;;;;;3.70;2.50;;;4.70;99.90;;;;;;5009086;28;20507;-71
2021/04/10 05:27:29;;;;;;;3.03;2.70;;;4.80;99.90;;;;;;5012597;28;20239;-72
2021/04/10 05:29:54;;;;;;;8.30;3.60;;;4.80;99.90;;;;;;5012756;28;20933;-71
2021/04/10 05:32:20;;;;;;;9.20;3.00;;;4.80;99.90;;;;;;5011562;28;20217;-71
2021/04/10 05:34:46;;;;;;;6.27;2.40;;;4.80;99.90;;;;;;4993542;28;20214;-72
2021/04/10 05:37:12;;;;;;;4.77;2.50;;;4.80;99.90;;;;;;5000062;28;20181;-72
2021/04/10 05:39:39;;;;;;;8.60;3.20;;;4.90;99.90;;;;;;5006188;28;20436;-72
2021/04/10 05:42:05;;;;;;;6.17;2.33;;;4.80;99.90;;;;;;5010298;28;20212;-71
2021/04/10 05:44:31;;;;;;;6.93;2.23;;;4.70;99.90;;;;;;5008226;28;20451;-72
2021/04/10 05:46:57;;;;;;;5.50;2.50;;;4.80;99.90;;;;;;5009193;28;20437;-72
2021/04/10 05:49:22;;;;;;;6.13;2.30;;;4.80;99.90;;;;;;5010144;28;20171;-71
2021/04/10 05:51:48;;;;;;;7.70;2.90;;;4.80;99.90;;;;;;5009560;28;20178;-72
2021/04/10 05:54:14;;;;;;;6.40;2.37;;;4.80;99.90;;;;;;4987215;28;20242;-72
2021/04/10 05:56:39;;;;;;;6.40;2.90;;;4.80;99.90;;;;;;5006463;28;20241;-71
2021/04/10 05:59:05;;;;;;;6.30;2.40;;;4.90;99.90;;;;;;5007039;28;20173;-74
2021/04/10 06:01:32;;;;;;;4.33;2.53;;;4.90;99.90;;;;;;5007058;28;20174;-72
2021/04/10 06:03:58;;;;;;;4.30;3.30;;;5.00;99.90;;;;;;5008409;28;20182;-72
2021/04/10 06:06:24;;;;;;;5.60;2.53;;;5.00;99.90;;;;;;5007112;28;20445;-71
2021/04/10 06:08:53;;;;;;;8.53;2.33;;;5.00;99.90;;;;;;5009236;28;20498;-71
2021/04/10 06:11:19;;;;;;;5.23;2.20;;;5.00;99.90;;;;;;5007288;28;20429;-71
2021/04/10 06:13:45;;;;;;;7.13;2.63;;;5.00;99.90;;;;;;5009079;28;20499;-71
2021/04/10 06:16:12;;;;;;;6.73;2.73;;;5.00;99.90;;;;;;5007910;28;20182;-71
2021/04/10 06:18:38;;;;;;;11.00;2.20;;;5.10;99.90;;;;;;5010136;28;20638;-71
2021/04/10 06:21:04;;;;;;;6.10;2.67;;;5.00;99.90;;;;;;5008365;28;20422;-71
2021/04/10 06:23:30;;;;;;;6.33;2.00;;;5.10;99.90;;;;;;5007316;28;20186;-70
2021/04/10 06:25:56;;;;;;;7.10;2.40;;;5.10;99.90;;;;;;5008979;28;20782;-71
2021/04/10 06:28:22;;;;;;;5.67;2.40;;;5.10;99.90;;;;;;5007890;28;20428;-71
2021/04/10 06:30:47;;;;;;;4.40;1.80;;;5.10;99.90;;;;;;5005613;28;20202;-71
2021/04/10 06:33:13;;;;;;;4.63;1.80;;;5.20;99.90;;;;;;4991378;28;20205;-71
2021/04/10 06:35:39;;;;;;;4.50;2.00;;;5.20;99.90;;;;;;5005614;28;20631;-71
2021/04/10 06:38:04;;;;;;;6.53;2.53;;;5.20;99.90;;;;;;5005111;28;20178;-71
2021/04/10 06:40:31;;;;;;;6.10;2.17;;;5.30;99.90;;;;;;5008755;28;20497;-71
2021/04/10 06:43:02;;;;;;;4.23;2.17;;;5.20;99.90;;;;;;5008133;28;20186;-71
2021/04/10 06:45:27;;;;;;;9.70;2.47;;;5.30;99.90;;;;;;5007080;28;20429;-71
2021/04/10 06:47:54;;;;;;;3.13;2.07;;;5.40;99.90;;;;;;5006881;28;20444;-71
2021/04/10 06:50:21;;;;;;;3.73;2.37;;;5.40;99.90;;;;;;5006400;28;20970;-71
2021/04/10 06:52:47;;;;;;;3.53;1.77;;;5.50;99.90;;;;;;5008411;28;20429;-71
2021/04/10 06:55:16;;;;;;;5.40;2.20;;;5.60;99.90;;;;;;5006693;28;20441;-70
2021/04/10 06:58:04;;;;;;;5.10;1.77;;;5.60;99.90;;;;;;5009164;28;20456;-71
2021/04/10 07:00:30;;;;;;;8.13;1.90;;;5.70;99.90;;;;;;5009616;28;20413;-71
2021/04/10 07:02:58;;;;;;;3.90;1.80;;;5.70;99.90;;;;;;5009831;28;20464;-70
2021/04/10 07:05:23;;;;;;;9.23;1.87;;;5.70;99.90;;;;;;5005681;28;20441;-71
2021/04/10 07:07:50;;;;;;;4.00;1.83;;;5.70;99.90;;;;;;5008563;28;20539;-71
2021/04/10 07:10:17;;;;;;;6.57;1.80;;;5.70;99.90;;;;;;5009628;28;20167;-71
2021/04/10 07:12:43;;;;;;;4.90;2.30;;;5.80;99.90;;;;;;5011217;28;20437;-71
2021/04/10 07:15:11;;;;;;;2.07;1.87;;;5.70;99.90;;;;;;5010081;28;20429;-71
2021/04/10 07:17:37;;;;;;;4.50;1.80;;;5.80;99.90;;;;;;5012948;28;20444;-72
2021/04/10 07:20:22;;;;;;;15.30;3.03;;;5.80;99.90;;;;;;5009734;28;20439;-72
2021/04/10 07:23:07;;;;;;;5.73;2.17;;;5.80;99.90;;;;;;5013715;28;20429;-72
2021/04/10 07:25:35;;;;;;;4.97;2.50;;;5.80;99.90;;;;;;5016498;28;20841;-72
2021/04/10 07:28:22;;;;;;;8.30;1.67;;;5.90;99.90;;;;;;5014169;28;20476;-71
2021/04/10 07:30:59;;;;;;;5.03;2.40;;;6.10;99.90;;;;;;5012010;28;20483;-71
2021/04/10 07:33:26;;;;;;;3.13;1.47;;;6.00;99.90;;;;;;5015679;28;20514;-72
2021/04/10 07:35:52;;;;;;;7.07;2.20;;;6.00;99.90;;;;;;5013655;28;20449;-72
2021/04/10 07:38:29;;;;;;;10.13;2.20;;;5.90;99.90;;;;;;5011697;28;20433;-72
2021/04/10 07:40:56;;;;;;;2.70;1.50;;;5.90;99.90;;;;;;5013567;28;20454;-72
2021/04/10 07:43:36;;;;;;;5.23;2.20;;;6.00;99.90;;;;;;5016332;28;20529;-71
2021/04/10 07:46:23;;;;;;;6.53;2.60;;;6.10;99.90;;;;;;5013810;28;20421;-71
2021/04/10 07:49:13;;;;;;;6.27;1.73;;;6.10;99.90;;;;;;5006210;28;23140;-71
2021/04/10 07:51:57;;;;;;;3.13;1.70;;;6.30;99.90;;;;;;5009346;28;20429;-71
2021/04/10 07:54:43;;;;;;;2.30;1.67;;;6.30;99.90;;;;;;5007790;28;20460;-71
2021/04/10 07:57:10;;;;;;;9.23;1.70;;;6.40;99.90;;;;;;5013495;28;20441;-71
2021/04/10 07:59:45;;;;;;;7.47;1.70;;;6.70;99.90;;;;;;5014148;28;20843;-71
2021/04/10 08:02:13;;;;;;;8.80;3.30;;;6.70;99.90;;;;;;5012299;28;20433;-71
2021/04/10 08:04:58;;;;;;;10.00;3.27;;;6.50;99.90;;;;;;5011094;28;20548;-71
2021/04/10 08:07:29;;;;;;;3.70;1.67;;;6.60;99.90;;;;;;5010657;28;20483;-71
2021/04/10 08:10:04;;;;;;;14.00;5.37;;;6.60;99.90;;;;;;5007500;28;20430;-71
2021/04/10 08:12:31;;;;;;;7.87;1.63;;;6.80;99.90;;;;;;5008922;28;22207;-72
2021/04/10 08:14:58;;;;;;;9.00;1.80;;;6.80;99.90;;;;;;5009865;28;20429;-71
2021/04/10 08:17:39;;;;;;;7.23;2.00;;;6.80;99.90;;;;;;5015375;28;20430;-71
2021/04/10 08:20:29;;;;;;;2.57;1.70;;;6.80;99.90;;;;;;5015522;28;20508;-72
2021/04/10 08:23:21;;;;;;;8.03;2.17;;;7.00;99.90;;;;;;5006000;28;20426;-72
2021/04/10 08:25:47;;;;;;;5.47;3.10;;;7.20;99.90;;;;;;5009506;28;20476;-72
2021/04/10 08:28:18;;;;;;;10.57;2.67;;;7.20;99.90;;;;;;5009773;28;20424;-71
2021/04/10 08:30:44;;;;;;;7.37;2.67;;;7.10;99.90;;;;;;5011761;28;20510;-71
2021/04/10 08:33:10;;;;;;;10.60;1.60;;;7.00;99.90;;;;;;5010079;28;20518;-71
2021/04/10 08:35:37;;;;;;;5.40;3.27;;;7.20;99.90;;;;;;5012473;28;20473;-71
2021/04/10 08:38:04;;;;;;;6.60;1.97;;;7.40;99.90;;;;;;5014171;28;20170;-71
2021/04/10 08:40:31;;;;;;;3.53;1.93;;;7.50;99.90;;;;;;5007895;28;20440;-71
2021/04/10 08:42:59;;;;;;;3.73;1.57;;;7.50;99.90;;;;;;5005804;28;20444;-71
2021/04/10 08:45:34;;;;;;;7.40;1.70;;;7.60;99.90;;;;;;5016263;28;20470;-71
2021/04/10 08:48:08;;;;;;;4.37;2.30;;;7.70;99.90;;;;;;4997594;28;20648;-71
2021/04/10 08:50:37;;;;;;;7.30;2.23;;;7.60;99.90;;;;;;5014304;28;20425;-71
2021/04/10 08:53:14;;;;;;;4.23;1.67;;;7.70;99.90;;;;;;4997993;28;21025;-72
2021/04/10 08:55:40;;;;;;;7.77;3.40;;;7.60;99.90;;;;;;5014779;28;20432;-71
2021/04/10 08:58:28;;;;;;;4.70;2.50;;;7.30;99.90;;;;;;5011947;28;20438;-71
2021/04/10 09:00:58;;;;;;;5.20;1.87;;;7.30;99.90;;;;;;5010609;28;20429;-72
2021/04/10 09:03:46;;;;;;;4.20;1.67;;;7.30;99.90;;;;;;5010145;28;20441;-71
2021/04/10 09:06:37;;;;;;;7.93;2.10;;;7.40;99.90;;;;;;5010106;28;20481;-71
2021/04/10 09:09:12;;;;;;;8.10;3.30;;;7.60;99.90;;;;;;5009789;28;20437;-71
2021/04/10 09:11:43;;;;;;;2.40;1.60;;;7.80;99.90;;;;;;5008563;28;20432;-71
2021/04/10 09:14:10;;;;;;;10.00;2.10;;;7.70;99.90;;;;;;5006546;28;20491;-71
2021/04/10 09:16:41;;;;;;;7.00;1.40;;;7.60;99.90;;;;;;5009045;28;20447;-71
2021/04/10 09:19:14;;;;;;;3.33;2.00;;;7.60;99.90;;;;;;5011023;28;20421;-71
2021/04/10 09:21:45;;;;;;;4.27;2.10;;;7.80;99.90;;;;;;5007266;28;20441;-71
2021/04/10 09:24:31;;;;;;;5.50;1.47;;;7.90;99.90;;;;;;5010704;28;20468;-72
2021/04/10 09:27:04;;;;;;;7.80;1.57;;;7.90;99.90;;;;;;5005143;28;20441;-71
2021/04/10 09:30:03;;;;;;;2.70;1.60;;;8.20;99.90;;;;;;5007045;28;20476;-72
2021/04/10 09:32:40;;;;;;;7.37;1.80;;;8.50;99.90;;;;;;5006405;28;20439;-71
2021/04/10 09:35:11;;;;;;;3.47;1.87;;;8.40;99.90;;;;;;5007658;28;20501;-72
2021/04/10 09:37:37;;;;;;;8.93;1.73;;;8.50;99.90;;;;;;5004593;28;20448;-71
2021/04/10 09:40:18;;;;;;;4.00;1.73;;;8.80;99.90;;;;;;5011665;28;20429;-71
2021/04/10 09:42:46;;;;;;;1.53;1.17;;;8.80;99.90;;;;;;4996000;28;20227;-72
2021/04/10 09:45:20;;;;;;;3.10;1.90;;;8.70;99.90;;;;;;5013371;28;20424;-71
2021/04/10 09:47:54;;;;;;;8.47;2.00;;;8.70;99.90;;;;;;4986410;28;20443;-71
2021/04/10 09:50:20;;;;;;;7.07;1.70;;;8.80;99.90;;;;;;5008769;28;20441;-71
2021/04/10 09:52:56;;;;;;;4.40;2.20;;;9.00;99.90;;;;;;5006836;28;20437;-71
2021/04/10 09:55:24;;;;;;;4.80;1.47;;;9.30;99.90;;;;;;5007627;28;20433;-71
2021/04/10 09:57:56;;;;;;;2.40;1.60;;;9.60;99.90;;;;;;5007756;28;20434;-71
2021/04/10 10:00:27;;;;;;;2.23;1.83;;;9.80;99.90;;;;;;5009227;28;20456;-71
2021/04/10 10:02:56;;;;;;;4.50;1.77;;;9.90;99.90;;;;;;5003976;28;20443;-71
2021/04/10 10:05:24;;;;;;;3.53;1.70;;;9.70;99.90;;;;;;5011725;28;20851;-71
2021/04/10 10:07:50;;;;;;;3.53;1.70;;;9.40;99.90;;;;;;5010875;28;20436;-71
2021/04/10 10:10:16;;;;;;;4.63;2.10;;;9.50;99.90;;;;;;5009191;28;20503;-71
2021/04/10 10:12:42;;;;;;;3.17;1.70;;;9.50;99.90;;;;;;5008599;28;20812;-71
2021/04/10 10:15:28;;;;;;;4.50;1.40;;;9.60;99.90;;;;;;5004700;28;20434;-71
2021/04/10 10:17:54;;;;;;;2.07;1.40;;;9.60;99.90;;;;;;4994460;28;20638;-71
2021/04/10 10:20:20;;;;;;;4.40;1.53;;;9.60;99.90;;;;;;4986696;28;20426;-71
2021/04/10 10:22:46;;;;;;;9.17;1.93;;;9.60;99.90;;;;;;5010020;28;20240;-72
2021/04/10 10:25:12;;;;;;;4.83;1.70;;;9.80;99.90;;;;;;5009544;28;20886;-72
2021/04/10 10:27:39;;;;;;;4.00;1.73;;;9.80;99.90;;;;;;5012356;28;20190;-72
2021/04/10 10:30:21;;;;;;;6.90;3.57;;;9.70;99.90;;;;;;5010986;28;20456;-72
2021/04/10 10:32:50;;;;;;;5.23;2.30;;;9.60;99.90;;;;;;5008408;28;20740;-72
2021/04/10 10:35:18;;;;;;;4.83;2.17;;;9.50;99.90;;;;;;5009859;28;22455;-72
2021/04/10 10:37:49;;;;;;;2.87;2.00;;;9.60;99.90;;;;;;5009482;28;20499;-72
2021/04/10 10:40:25;;;;;;;3.60;2.10;;;9.60;99.90;;;;;;5012026;28;20418;-72
2021/04/10 10:43:09;;;;;;;4.30;1.80;;;9.50;99.90;;;;;;5012622;28;20506;-72
2021/04/10 10:45:45;;;;;;;4.90;2.20;;;9.30;99.90;;;;;;5012726;28;20836;-72
2021/04/10 10:48:27;;;;;;;13.20;3.07;;;9.10;99.90;;;;;;5014255;28;20552;-72
2021/04/10 10:51:02;;;;;;;5.00;2.33;;;9.10;99.90;;;;;;5011930;28;20429;-72
2021/04/10 10:53:35;;;;;;;4.37;2.87;;;9.10;99.90;;;;;;5014586;28;20456;-72
2021/04/10 10:56:10;;;;;;;1.83;1.50;;;9.10;99.90;;;;;;5012259;28;20475;-72
2021/04/10 10:58:51;;;;;;;6.73;3.57;;;9.30;99.90;;;;;;5014107;28;20425;-72
2021/04/10 11:01:47;;;;;;;4.77;2.57;;;9.50;99.90;;;;;;5014815;28;20764;-72
2021/04/10 11:04:20;;;;;;;7.40;1.83;;;9.60;99.90;;;;;;4992484;28;20438;-72
2021/04/10 11:06:47;;;;;;;5.60;1.70;;;9.50;99.90;;;;;;5010211;28;20448;-72
2021/04/10 11:09:25;;;;;;;2.50;2.20;;;9.60;99.90;;;;;;5014167;28;20571;-72
2021/04/10 11:12:04;;;;;;;6.07;1.60;;;9.70;99.90;;;;;;4990811;28;20779;-72
2021/04/10 11:14:39;;;;;;;4.40;1.67;;;9.90;99.90;;;;;;5015090;28;20935;-72
2021/04/10 11:17:05;;;;;;;4.10;1.67;;;10.10;99.90;;;;;;5014912;28;20893;-72
2021/04/10 11:19:37;;;;;;;2.23;1.70;;;10.30;99.90;;;;;;5016832;28;20421;-72
2021/04/10 11:22:06;;;;;;;2.80;2.00;;;10.60;99.90;;;;;;5018200;28;20177;-72
2021/04/10 11:24:36;;;;;;;4.03;1.50;;;11.10;99.90;;;;;;5017339;28;20430;-72
2021/04/10 11:27:16;;;;;;;5.67;2.20;;;11.30;99.90;;;;;;5015090;28;20429;-72
2021/04/10 11:29:58;;;;;;;3.20;2.00;;;11.60;99.90;;;;;;5016967;28;20949;-72
2021/04/10 11:32:28;;;;;;;8.63;2.13;;;11.70;99.90;;;;;;5017175;28;20433;-72
2021/04/10 11:34:57;;;;;;;2.07;1.87;;;11.60;99.80;;;;;;5016062;28;20930;-72
2021/04/10 11:37:37;;;;;;;3.13;2.10;;;11.50;99.90;;;;;;5016606;28;20436;-73
2021/04/10 11:40:16;;;;;;;7.00;2.47;;;11.30;99.90;;;;;;5014063;28;20914;-72
2021/04/10 11:42:57;;;;;;;4.33;1.80;;;11.50;99.90;;;;;;5014443;28;20421;-72
2021/04/10 11:45:25;;;;;;;3.63;1.60;;;11.60;99.90;;;;;;5018132;28;20973;-72
2021/04/10 11:48:07;;;;;;;3.23;1.80;;;11.80;99.90;;;;;;5017549;28;20469;-72
2021/04/10 11:50:51;;;;;;;2.30;1.40;;;12.10;99.90;;;;;;5015756;28;20421;-72
2021/04/10 11:53:37;;;;;;;4.10;2.10;;;12.20;99.90;;;;;;5015645;28;20823;-72
2021/04/10 11:56:23;;;;;;;4.37;1.80;;;12.20;99.90;;;;;;5014944;28;20433;-72
2021/04/10 11:59:00;;;;;;;3.47;2.20;;;12.50;98.90;;;;;;4998416;28;20460;-73
2021/04/10 12:01:26;;;;;;;1.53;1.43;;;12.30;98.40;;;;;;4997881;28;21040;-72
2021/04/10 12:03:59;;;;;;;4.40;1.90;;;12.30;99.90;;;;;;5016014;28;20520;-72
2021/04/10 12:06:37;;;;;;;1.57;1.47;;;11.90;99.90;;;;;;5016832;28;20430;-72
2021/04/10 12:09:10;;;;;;;1.63;1.53;;;11.80;99.80;;;;;;5016157;28;20433;-72
2021/04/10 12:11:37;;;;;;;4.90;1.63;;;11.80;99.90;;;;;;5014701;28;20448;-73
2021/04/10 12:14:07;;;;;;;3.10;1.70;;;11.90;99.90;;;;;;5015327;28;20465;-72
2021/04/10 12:16:41;;;;;;;3.17;1.90;;;12.00;97.40;;;;;;5012886;28;20495;-71
2021/04/10 12:19:08;;;;;;;2.03;1.83;;;12.10;99.90;;;;;;4988492;28;20445;-72
2021/04/10 12:21:34;;;;;;;5.50;2.00;;;12.30;97.70;;;;;;5014909;28;20445;-72
2021/04/10 12:24:00;;;;;;;2.27;1.67;;;12.50;98.10;;;;;;5013932;28;20444;-72
2021/04/10 12:26:26;;;;;;;3.67;2.10;;;12.40;96.80;;;;;;5013512;28;20437;-72
2021/04/10 12:28:52;;;;;;;3.17;1.60;;;12.30;98.30;;;;;;5013981;28;20186;-72
2021/04/10 12:31:18;;;;;;;6.77;1.70;;;12.30;98.20;;;;;;5014992;28;20903;-72
2021/04/10 12:33:44;;;;;;;8.60;2.03;;;12.00;97.00;;;;;;5012515;28;20778;-72
2021/04/10 12:36:11;;;;;;;3.97;1.90;;;12.00;99.10;;;;;;5013516;28;20196;-72
2021/04/10 12:38:36;;;;;;;1.80;1.30;;;12.50;98.70;;;;;;5014860;28;20424;-72
2021/04/10 12:41:03;;;;;;;2.83;2.40;;;12.70;97.90;;;;;;5012292;28;20430;-72
2021/04/10 12:43:29;;;;;;;4.53;1.97;;;12.90;97.80;;;;;;5010904;28;20195;-72
2021/04/10 12:45:55;;;;;;;4.43;1.90;;;12.90;99.40;;;;;;4995466;28;20441;-72
2021/04/10 12:48:21;;;;;;;1.57;1.47;;;13.10;99.90;;;;;;5014532;28;20790;-72
2021/04/10 12:50:46;;;;;;;3.20;1.60;;;13.60;99.30;;;;;;5012977;28;20182;-72
2021/04/10 12:53:12;;;;;;;4.27;1.93;;;13.80;96.80;;;;;;5013439;28;20649;-72
2021/04/10 12:55:38;;;;;;;5.40;1.90;;;13.70;98.60;;;;;;5011727;28;21121;-72
2021/04/10 12:58:04;;;;;;;1.57;1.37;;;13.50;96.20;;;;;;5012642;28;20523;-72
2021/04/10 13:00:30;;;;;;;5.80;1.70;;;12.60;96.10;;;;;;5014397;28;20436;-72
2021/04/10 13:02:56;;;;;;;2.03;1.80;;;11.90;99.80;;;;;;5014823;28;20213;-72
2021/04/10 13:05:22;;;;;;;4.20;1.83;;;11.80;98.30;;;;;;5012027;28;20206;-72
2021/04/10 13:07:48;;;;;;;3.50;1.87;;;11.90;99.90;;;;;;5012680;28;20179;-72
2021/04/10 13:10:15;;;;;;;2.60;1.60;;;11.90;98.20;;;;;;5014693;28;20257;-72